createdAt,value
2023-04-16T00:00:11.294Z,11.70
2023-04-16T00:00:55.975Z,14.90
2023-04-16T00:01:38.220Z,14.40
2023-04-16T00:02:21.415Z,15.37
2023-04-16T00:03:04.149Z,13.32
2023-04-16T00:03:46.937Z,14.75
2023-04-16T00:04:29.884Z,12.70
2023-04-16T00:05:12.090Z,15.27
2023-04-16T00:05:55.983Z,12.48
2023-04-16T00:06:38.205Z,11.25
2023-04-16T00:07:20.632Z,14.57
2023-04-16T00:08:03.080Z,18.33
2023-04-16T00:08:45.637Z,17.23
2023-04-16T00:09:29.848Z,15.18
2023-04-16T00:10:12.064Z,16.90
2023-04-16T00:10:54.748Z,17.27
2023-04-16T00:11:37.179Z,12.80
2023-04-16T00:12:19.760Z,13.35
2023-04-16T00:13:02.169Z,16.95
2023-04-16T00:13:44.777Z,16.50
2023-04-16T00:14:26.943Z,13.77
2023-04-16T00:15:09.343Z,13.98
2023-04-16T00:15:51.756Z,14.52
2023-04-16T00:16:34.217Z,14.07
2023-04-16T00:17:16.675Z,13.85
2023-04-16T00:17:59.010Z,13.18
2023-04-16T00:18:41.229Z,13.63
2023-04-16T00:19:23.460Z,13.07
2023-04-16T00:20:05.977Z,12.85
2023-04-16T00:20:49.158Z,13.00
2023-04-16T00:21:31.931Z,14.18
2023-04-16T00:22:14.215Z,15.07
2023-04-16T00:22:56.724Z,12.93
2023-04-16T00:23:38.954Z,15.18
2023-04-16T00:24:21.139Z,14.38
2023-04-16T00:25:03.341Z,15.20
2023-04-16T00:25:45.808Z,15.63
2023-04-16T00:26:27.979Z,16.02
2023-04-16T00:27:10.769Z,15.55
2023-04-16T00:27:52.906Z,12.32
2023-04-16T00:28:35.141Z,15.45
2023-04-16T00:29:17.321Z,16.80
2023-04-16T00:29:59.860Z,13.48
2023-04-16T00:30:42.085Z,12.70
2023-04-16T00:31:28.169Z,15.25
2023-04-16T00:32:10.555Z,15.32
2023-04-16T00:32:55.098Z,15.95
2023-04-16T00:33:37.428Z,15.80
2023-04-16T00:34:19.846Z,14.80
2023-04-16T00:35:02.059Z,13.98
2023-04-16T00:35:46.820Z,15.00
2023-04-16T00:36:29.245Z,17.75
2023-04-16T00:37:11.425Z,16.65
2023-04-16T00:37:54.063Z,14.52
2023-04-16T00:38:36.357Z,14.57
2023-04-16T00:39:18.537Z,13.23
2023-04-16T00:40:00.740Z,13.02
2023-04-16T00:40:45.496Z,14.48
2023-04-16T00:41:30.156Z,16.23
2023-04-16T00:42:12.437Z,15.75
2023-04-16T00:42:54.985Z,15.90
2023-04-16T00:43:37.188Z,20.60
2023-04-16T00:44:19.359Z,21.05
2023-04-16T00:45:01.854Z,19.23
2023-04-16T00:45:44.098Z,13.18
2023-04-16T00:46:26.812Z,14.43
2023-04-16T00:47:09.321Z,15.25
2023-04-16T00:47:51.803Z,15.40
2023-04-16T00:48:34.328Z,16.17
2023-04-16T00:49:16.860Z,14.20
2023-04-16T00:49:59.098Z,19.33
2023-04-16T00:50:41.752Z,18.75
2023-04-16T00:51:24.284Z,17.73
2023-04-16T00:52:06.858Z,16.38
2023-04-16T00:52:50.104Z,15.48
2023-04-16T00:53:32.345Z,14.80
2023-04-16T00:54:15.096Z,15.13
2023-04-16T00:54:57.421Z,15.57
2023-04-16T00:55:40.156Z,17.25
2023-04-16T00:56:24.174Z,16.92
2023-04-16T00:57:06.991Z,17.15
2023-04-16T00:57:49.213Z,15.18
2023-04-16T00:58:31.873Z,15.00
2023-04-16T00:59:14.066Z,16.15
2023-04-16T00:59:56.337Z,16.63
2023-04-16T01:00:38.526Z,17.40
2023-04-16T01:01:21.066Z,17.13
2023-04-16T01:02:03.450Z,19.13
2023-04-16T01:02:46.177Z,15.73
2023-04-16T01:03:35.764Z,17.92
2023-04-16T01:04:18.358Z,18.15
2023-04-16T01:05:01.316Z,21.45
2023-04-16T01:05:46.067Z,19.67
2023-04-16T01:06:28.338Z,17.85
2023-04-16T01:07:10.529Z,18.30
2023-04-16T01:07:53.016Z,16.25
2023-04-16T01:08:35.312Z,19.10
2023-04-16T01:09:20.177Z,21.30
2023-04-16T01:10:05.107Z,20.02
2023-04-16T01:10:47.245Z,18.13
2023-04-16T01:11:29.433Z,16.98
2023-04-16T01:12:11.921Z,15.93
2023-04-16T01:12:54.101Z,16.30
2023-04-16T01:13:39.447Z,17.10
2023-04-16T01:14:22.144Z,17.25
2023-04-16T01:15:05.107Z,19.88
2023-04-16T01:15:47.274Z,19.40
2023-04-16T01:16:29.558Z,15.70
2023-04-16T01:17:12.267Z,15.95
2023-04-16T01:17:54.534Z,17.67
2023-04-16T01:18:36.948Z,18.98
2023-04-16T01:19:19.135Z,17.92
2023-04-16T01:20:01.537Z,17.55
2023-04-16T01:20:46.473Z,15.95
2023-04-16T01:21:29.244Z,15.60
2023-04-16T01:22:11.459Z,14.05
2023-04-16T01:22:53.693Z,17.00
2023-04-16T01:23:36.106Z,17.70
2023-04-16T01:24:18.286Z,14.97
2023-04-16T01:25:01.136Z,16.00
2023-04-16T01:25:43.363Z,17.55
2023-04-16T01:26:25.674Z,17.52
2023-04-16T01:27:10.137Z,14.70
2023-04-16T01:27:57.283Z,16.38
2023-04-16T01:28:39.450Z,17.23
2023-04-16T01:29:21.657Z,17.95
2023-04-16T01:30:04.017Z,14.77
2023-04-16T01:30:46.246Z,18.98
2023-04-16T01:31:28.456Z,18.83
2023-04-16T01:32:10.668Z,19.60
2023-04-16T01:32:52.861Z,18.02
2023-04-16T01:33:35.418Z,16.23
2023-04-16T01:34:17.641Z,18.92
2023-04-16T01:35:00.342Z,16.05
2023-04-16T01:35:42.833Z,15.90
2023-04-16T01:36:25.430Z,18.48
2023-04-16T01:37:07.977Z,21.75
2023-04-16T01:37:51.244Z,16.92
2023-04-16T01:38:33.407Z,20.02
2023-04-16T01:39:16.454Z,20.20
2023-04-16T01:39:58.743Z,18.27
2023-04-16T01:40:41.252Z,18.70
2023-04-16T01:41:23.468Z,20.13
2023-04-16T01:42:05.670Z,21.35
2023-04-16T01:42:50.206Z,18.77
2023-04-16T01:43:32.416Z,17.15
2023-04-16T01:44:14.708Z,21.73
2023-04-16T01:44:57.248Z,21.05
2023-04-16T01:45:39.432Z,23.23
2023-04-16T01:46:24.464Z,19.38
2023-04-16T01:47:06.734Z,19.85
2023-04-16T01:47:51.352Z,23.88
2023-04-16T01:48:33.867Z,22.40
2023-04-16T01:49:16.676Z,26.75
2023-04-16T01:50:01.389Z,23.00
2023-04-16T01:50:43.651Z,23.77
2023-04-16T01:51:27.237Z,26.10
2023-04-16T01:52:09.514Z,20.88
2023-04-16T01:52:51.683Z,23.05
2023-04-16T01:53:36.531Z,26.25
2023-04-16T01:54:19.321Z,29.05
2023-04-16T01:55:01.596Z,25.95
2023-04-16T01:55:43.835Z,27.02
2023-04-16T01:56:26.532Z,24.70
2023-04-16T01:57:08.730Z,24.83
2023-04-16T01:57:51.462Z,24.77
2023-04-16T01:58:34.525Z,28.38
2023-04-16T01:59:16.693Z,28.23
2023-04-16T01:59:59.112Z,30.15
2023-04-16T02:00:41.358Z,28.52
2023-04-16T02:01:23.613Z,28.50
2023-04-16T02:02:11.337Z,24.02
2023-04-16T02:02:53.884Z,26.02
2023-04-16T02:03:36.532Z,25.05
2023-04-16T02:04:18.993Z,24.55
2023-04-16T02:05:01.603Z,25.50
2023-04-16T02:05:43.783Z,24.63
2023-04-16T02:06:26.460Z,24.27
2023-04-16T02:07:09.018Z,25.92
2023-04-16T02:07:51.444Z,22.67
2023-04-16T02:08:33.645Z,22.02
2023-04-16T02:09:18.566Z,24.15
2023-04-16T02:10:00.812Z,24.48
2023-04-16T02:10:42.977Z,23.73
2023-04-16T02:11:26.405Z,21.80
2023-04-16T02:12:11.413Z,21.40
2023-04-16T02:12:53.726Z,21.30
2023-04-16T02:13:35.959Z,20.92
2023-04-16T02:14:18.165Z,22.08
2023-04-16T02:15:00.977Z,21.60
2023-04-16T02:15:47.498Z,27.90
2023-04-16T02:16:29.697Z,26.38
2023-04-16T02:17:11.998Z,25.85
2023-04-16T02:17:56.947Z,23.70
2023-04-16T02:18:39.670Z,20.35
2023-04-16T02:19:22.909Z,23.45
2023-04-16T02:20:08.036Z,22.73
2023-04-16T02:20:50.685Z,27.67
2023-04-16T02:21:32.916Z,24.45
2023-04-16T02:22:15.783Z,22.50
2023-04-16T02:22:57.953Z,24.67
2023-04-16T02:23:43.491Z,21.05
2023-04-16T02:24:25.787Z,21.73
2023-04-16T02:25:08.118Z,19.33
2023-04-16T02:25:50.632Z,19.77
2023-04-16T02:26:33.190Z,21.42
2023-04-16T02:27:16.032Z,22.23
2023-04-16T02:27:58.224Z,22.17
2023-04-16T02:28:40.745Z,19.75
2023-04-16T02:29:23.157Z,21.48
2023-04-16T02:30:05.978Z,23.08
2023-04-16T02:30:48.228Z,21.88
2023-04-16T02:31:31.622Z,22.45
2023-04-16T02:32:13.951Z,22.13
2023-04-16T02:32:58.771Z,20.02
2023-04-16T02:33:41.193Z,20.80
2023-04-16T02:34:23.559Z,19.38
2023-04-16T02:35:06.149Z,18.48
2023-04-16T02:35:50.964Z,21.40
2023-04-16T02:36:36.507Z,21.60
2023-04-16T02:37:21.053Z,21.95
2023-04-16T02:38:04.243Z,23.15
2023-04-16T02:38:46.958Z,20.20
2023-04-16T02:39:29.246Z,18.10
2023-04-16T02:40:11.998Z,18.23
2023-04-16T02:40:54.264Z,18.63
2023-04-16T02:41:36.802Z,20.30
2023-04-16T02:42:19.007Z,22.35
2023-04-16T02:43:01.251Z,21.92
2023-04-16T02:43:45.899Z,19.30
2023-04-16T02:44:28.089Z,19.25
2023-04-16T02:45:11.680Z,21.23
2023-04-16T02:45:53.891Z,19.05
2023-04-16T02:46:36.054Z,20.05
2023-04-16T02:47:18.508Z,19.60
2023-04-16T02:48:01.240Z,19.95
2023-04-16T02:48:43.494Z,26.05
2023-04-16T02:49:26.009Z,24.52
2023-04-16T02:50:10.897Z,20.42
2023-04-16T02:50:53.082Z,21.52
2023-04-16T02:51:35.257Z,24.45
2023-04-16T02:52:17.598Z,19.35
2023-04-16T02:52:59.877Z,20.05
2023-04-16T02:53:45.929Z,19.33
2023-04-16T02:54:28.179Z,20.77
2023-04-16T02:55:10.862Z,21.85
2023-04-16T02:55:53.785Z,19.33
2023-04-16T02:56:36.130Z,19.98
2023-04-16T02:57:18.301Z,21.75
2023-04-16T02:58:00.969Z,18.13
2023-04-16T02:58:43.122Z,19.10
2023-04-16T02:59:25.796Z,21.85
2023-04-16T03:00:10.741Z,20.52
2023-04-16T03:00:55.835Z,21.77
2023-04-16T03:01:38.071Z,21.70
2023-04-16T03:02:20.790Z,19.75
2023-04-16T03:03:03.073Z,21.40
2023-04-16T03:03:45.279Z,21.58
2023-04-16T03:04:27.776Z,22.88
2023-04-16T03:05:10.252Z,23.98
2023-04-16T03:05:52.509Z,22.02
2023-04-16T03:06:35.104Z,22.55
2023-04-16T03:07:18.374Z,23.85
2023-04-16T03:08:01.048Z,23.30
2023-04-16T03:08:43.220Z,23.70
2023-04-16T03:09:26.055Z,21.30
2023-04-16T03:10:11.564Z,23.65
2023-04-16T03:10:56.239Z,23.17
2023-04-16T03:11:38.433Z,25.05
2023-04-16T03:12:21.002Z,24.10
2023-04-16T03:13:03.306Z,22.25
2023-04-16T03:13:45.866Z,20.55
2023-04-16T03:14:28.139Z,22.88
2023-04-16T03:15:11.181Z,26.75
2023-04-16T03:15:53.406Z,25.65
2023-04-16T03:16:36.429Z,23.58
2023-04-16T03:17:18.624Z,21.85
2023-04-16T03:18:01.286Z,22.42
2023-04-16T03:18:43.535Z,24.80
2023-04-16T03:19:26.180Z,23.92
2023-04-16T03:20:11.286Z,19.67
2023-04-16T03:20:54.129Z,25.63
2023-04-16T03:21:36.342Z,22.55
2023-04-16T03:22:18.588Z,25.40
2023-04-16T03:23:01.255Z,27.13
2023-04-16T03:23:43.436Z,27.67
2023-04-16T03:24:26.214Z,26.05
2023-04-16T03:25:10.734Z,24.27
2023-04-16T03:25:52.906Z,24.80
2023-04-16T03:26:35.063Z,24.83
2023-04-16T03:27:17.297Z,20.95
2023-04-16T03:27:59.555Z,25.92
2023-04-16T03:28:41.908Z,27.55
2023-04-16T03:29:26.169Z,28.63
2023-04-16T03:30:11.446Z,28.48
2023-04-16T03:30:56.798Z,29.48
2023-04-16T03:31:41.431Z,22.63
2023-04-16T03:32:26.093Z,22.48
2023-04-16T03:33:08.348Z,26.33
2023-04-16T03:33:50.951Z,26.50
2023-04-16T03:34:33.134Z,25.45
2023-04-16T03:35:15.773Z,26.55
2023-04-16T03:35:58.493Z,27.52
2023-04-16T03:36:41.163Z,26.15
2023-04-16T03:37:23.405Z,27.23
2023-04-16T03:38:06.297Z,25.35
2023-04-16T03:38:48.453Z,25.23
2023-04-16T03:39:30.988Z,26.33
2023-04-16T03:40:13.424Z,24.40
2023-04-16T03:40:55.646Z,24.80
2023-04-16T03:41:37.887Z,29.10
2023-04-16T03:42:20.079Z,25.30
2023-04-16T03:43:02.321Z,22.98
2023-04-16T03:43:44.558Z,23.30
2023-04-16T03:44:27.091Z,21.02
2023-04-16T03:45:09.582Z,24.10
2023-04-16T03:45:52.026Z,25.38
2023-04-16T03:46:36.218Z,25.85
2023-04-16T03:47:18.468Z,23.75
2023-04-16T03:48:01.228Z,26.77
2023-04-16T03:48:43.424Z,28.50
2023-04-16T03:49:26.100Z,23.13
2023-04-16T03:50:08.435Z,23.90
2023-04-16T03:50:51.068Z,25.80
2023-04-16T03:51:33.219Z,29.20
2023-04-16T03:52:17.931Z,25.35
2023-04-16T03:53:00.385Z,25.25
2023-04-16T03:53:42.559Z,24.13
2023-04-16T03:54:27.404Z,21.83
2023-04-16T03:55:09.685Z,24.45
2023-04-16T03:55:52.538Z,26.30
2023-04-16T03:56:34.661Z,28.85
2023-04-16T03:57:17.123Z,30.05
2023-04-16T03:58:02.989Z,26.35
2023-04-16T03:58:45.471Z,28.30
2023-04-16T03:59:27.862Z,28.95
2023-04-16T04:00:10.442Z,28.63
2023-04-16T04:00:56.313Z,27.63
2023-04-16T04:01:38.538Z,29.08
2023-04-16T04:02:21.507Z,31.90
2023-04-16T04:03:04.131Z,24.33
2023-04-16T04:03:46.676Z,26.05
2023-04-16T04:04:31.469Z,28.50
2023-04-16T04:05:13.806Z,26.85
2023-04-16T04:05:56.363Z,26.67
2023-04-16T04:06:38.540Z,27.10
2023-04-16T04:07:21.328Z,27.23
2023-04-16T04:08:03.813Z,24.92
2023-04-16T04:08:46.407Z,26.80
2023-04-16T04:09:28.642Z,26.50
2023-04-16T04:10:11.397Z,27.10
2023-04-16T04:10:53.633Z,27.50
2023-04-16T04:11:35.804Z,29.73
2023-04-16T04:12:18.178Z,32.65
2023-04-16T04:13:00.739Z,29.42
2023-04-16T04:13:43.107Z,27.92
2023-04-16T04:14:25.372Z,26.90
2023-04-16T04:15:08.051Z,29.23
2023-04-16T04:15:50.611Z,26.80
2023-04-16T04:16:33.181Z,29.33
2023-04-16T04:17:15.607Z,24.77
2023-04-16T04:17:58.113Z,31.05
2023-04-16T04:18:40.634Z,30.85
2023-04-16T04:19:22.855Z,31.40
2023-04-16T04:20:05.260Z,32.60
2023-04-16T04:20:47.469Z,27.92
2023-04-16T04:21:29.888Z,27.65
2023-04-16T04:22:12.314Z,31.80
2023-04-16T04:22:57.111Z,34.28
2023-04-16T04:23:41.842Z,31.98
2023-04-16T04:24:26.344Z,29.58
2023-04-16T04:25:11.473Z,30.77
2023-04-16T04:25:53.742Z,30.35
2023-04-16T04:26:36.479Z,32.00
2023-04-16T04:27:18.721Z,29.52
2023-04-16T04:28:01.514Z,28.27
2023-04-16T04:28:43.728Z,26.77
2023-04-16T04:29:26.489Z,28.08
2023-04-16T04:30:08.955Z,25.33
2023-04-16T04:30:51.512Z,28.85
2023-04-16T04:31:33.738Z,27.80
2023-04-16T04:32:16.401Z,30.10
2023-04-16T04:32:58.644Z,30.42
2023-04-16T04:33:41.576Z,33.00
2023-04-16T04:34:23.727Z,31.83
2023-04-16T04:35:06.586Z,33.50
2023-04-16T04:35:48.782Z,33.83
2023-04-16T04:36:31.382Z,35.92
2023-04-16T04:37:13.599Z,31.55
2023-04-16T04:37:55.796Z,29.85
2023-04-16T04:38:38.178Z,29.30
2023-04-16T04:39:21.697Z,32.50
2023-04-16T04:40:03.900Z,29.20
2023-04-16T04:40:46.925Z,30.70
2023-04-16T04:41:31.801Z,30.20
2023-04-16T04:42:14.197Z,27.08
2023-04-16T04:42:56.959Z,27.70
2023-04-16T04:43:39.166Z,31.88
2023-04-16T04:44:21.872Z,32.28
2023-04-16T04:45:06.251Z,26.83
2023-04-16T04:45:49.421Z,30.60
2023-04-16T04:46:31.821Z,33.65
2023-04-16T04:47:16.829Z,30.15
2023-04-16T04:47:59.130Z,27.40
2023-04-16T04:48:41.688Z,33.25
2023-04-16T04:49:23.976Z,28.70
2023-04-16T04:50:06.819Z,30.50
2023-04-16T04:50:49.012Z,29.02
2023-04-16T04:51:31.859Z,28.05
2023-04-16T04:52:16.922Z,28.02
2023-04-16T04:53:01.517Z,30.85
2023-04-16T04:53:43.706Z,31.45
2023-04-16T04:54:26.028Z,32.65
2023-04-16T04:55:08.601Z,30.50
2023-04-16T04:55:53.228Z,31.00
2023-04-16T04:56:37.823Z,33.20
2023-04-16T04:57:20.027Z,30.35
2023-04-16T04:58:03.629Z,34.50
2023-04-16T04:58:45.927Z,32.17
2023-04-16T04:59:28.264Z,32.28
2023-04-16T05:00:10.974Z,29.80
2023-04-16T05:00:53.292Z,30.48
2023-04-16T05:01:35.834Z,30.33
2023-04-16T05:02:18.407Z,33.40
2023-04-16T05:03:06.717Z,33.00
2023-04-16T05:03:49.001Z,30.00
2023-04-16T05:04:31.821Z,33.35
2023-04-16T05:05:14.033Z,29.83
2023-04-16T05:05:56.632Z,32.75
2023-04-16T05:06:38.818Z,32.72
2023-04-16T05:07:21.183Z,33.50
2023-04-16T05:08:03.497Z,33.40
2023-04-16T05:08:45.650Z,30.05
2023-04-16T05:09:27.846Z,29.85
2023-04-16T05:10:10.166Z,26.40
2023-04-16T05:10:52.656Z,35.65
2023-04-16T05:11:34.878Z,33.78
2023-04-16T05:12:17.200Z,29.90
2023-04-16T05:13:02.056Z,27.38
2023-04-16T05:13:44.306Z,31.33
2023-04-16T05:14:26.890Z,31.00
2023-04-16T05:15:11.824Z,33.10
2023-04-16T05:15:54.066Z,28.63
2023-04-16T05:16:39.190Z,26.80
2023-04-16T05:17:21.864Z,32.10
2023-04-16T05:18:04.191Z,33.95
2023-04-16T05:18:46.805Z,33.17
2023-04-16T05:19:29.052Z,27.67
2023-04-16T05:20:11.860Z,28.95
2023-04-16T05:20:54.167Z,28.98
2023-04-16T05:21:36.576Z,28.98
2023-04-16T05:22:19.066Z,28.88
2023-04-16T05:23:01.398Z,28.38
2023-04-16T05:23:43.656Z,29.88
2023-04-16T05:24:26.047Z,31.02
2023-04-16T05:25:10.808Z,39.20
2023-04-16T05:25:52.993Z,31.52
2023-04-16T05:26:35.187Z,29.40
2023-04-16T05:27:17.551Z,29.67
2023-04-16T05:27:59.806Z,32.30
2023-04-16T05:28:41.990Z,28.50
2023-04-16T05:29:24.323Z,28.90
2023-04-16T05:30:07.032Z,29.45
2023-04-16T05:30:49.206Z,25.15
2023-04-16T05:31:31.664Z,31.13
2023-04-16T05:32:16.192Z,32.15
2023-04-16T05:32:58.415Z,32.42
2023-04-16T05:33:40.943Z,31.35
2023-04-16T05:34:23.113Z,32.15
2023-04-16T05:35:05.733Z,33.65
2023-04-16T05:35:47.926Z,30.67
2023-04-16T05:36:30.198Z,27.85
2023-04-16T05:37:12.505Z,34.70
2023-04-16T05:37:55.087Z,30.42
2023-04-16T05:38:37.214Z,28.92
2023-04-16T05:39:20.089Z,29.80
2023-04-16T05:40:02.537Z,29.73
2023-04-16T05:40:45.083Z,35.88
2023-04-16T05:41:27.214Z,33.30
2023-04-16T05:42:09.354Z,31.63
2023-04-16T05:42:51.909Z,29.52
2023-04-16T05:43:34.083Z,31.25
2023-04-16T05:44:16.330Z,32.25
2023-04-16T05:44:58.540Z,30.73
2023-04-16T05:45:41.441Z,32.25
2023-04-16T05:46:26.058Z,29.58
2023-04-16T05:47:09.425Z,28.38
2023-04-16T05:47:51.888Z,30.83
2023-04-16T05:48:34.141Z,30.85
2023-04-16T05:49:21.199Z,28.20
2023-04-16T05:50:03.419Z,32.58
2023-04-16T05:50:46.076Z,32.38
2023-04-16T05:51:28.250Z,29.88
2023-04-16T05:52:11.050Z,30.55
2023-04-16T05:52:53.260Z,26.60
2023-04-16T05:53:35.541Z,27.95
2023-04-16T05:54:17.762Z,28.23
2023-04-16T05:55:01.815Z,32.90
2023-04-16T05:55:44.179Z,28.88
2023-04-16T05:56:27.116Z,31.63
2023-04-16T05:57:09.340Z,31.40
2023-04-16T05:57:51.525Z,34.63
2023-04-16T05:58:35.920Z,32.53
2023-04-16T05:59:18.040Z,28.25
2023-04-16T06:00:00.250Z,34.72
2023-04-16T06:00:42.499Z,33.30
2023-04-16T06:01:27.302Z,31.63
2023-04-16T06:02:09.653Z,30.67
2023-04-16T06:02:52.102Z,28.20
2023-04-16T06:03:34.439Z,30.63
2023-04-16T06:04:17.085Z,31.33
2023-04-16T06:04:59.367Z,30.67
2023-04-16T06:05:41.614Z,30.73
2023-04-16T06:06:26.125Z,29.15
2023-04-16T06:07:08.283Z,31.95
2023-04-16T06:07:50.564Z,32.90
2023-04-16T06:08:32.902Z,33.25
2023-04-16T06:09:15.312Z,34.58
2023-04-16T06:09:57.484Z,34.25
2023-04-16T06:10:40.329Z,31.85
2023-04-16T06:11:22.679Z,31.90
2023-04-16T06:12:05.276Z,32.40
2023-04-16T06:12:47.404Z,34.85
2023-04-16T06:13:29.680Z,32.90
2023-04-16T06:14:12.174Z,34.78
2023-04-16T06:14:54.289Z,33.60
2023-04-16T06:15:36.483Z,32.00
2023-04-16T06:16:18.761Z,35.50
2023-04-16T06:17:01.404Z,39.97
2023-04-16T06:17:43.711Z,33.15
2023-04-16T06:18:26.273Z,30.65
2023-04-16T06:19:08.906Z,32.72
2023-04-16T06:19:51.346Z,35.50
2023-04-16T06:20:33.500Z,34.95
2023-04-16T06:21:16.203Z,30.88
2023-04-16T06:21:58.469Z,33.53
2023-04-16T06:22:40.784Z,34.22
2023-04-16T06:23:22.993Z,36.13
2023-04-16T06:24:05.485Z,40.53
2023-04-16T06:24:47.673Z,35.70
2023-04-16T06:25:29.821Z,32.05
2023-04-16T06:26:12.194Z,30.60
2023-04-16T06:26:54.691Z,31.50
2023-04-16T06:27:37.213Z,35.08
2023-04-16T06:28:19.433Z,35.88
2023-04-16T06:29:01.728Z,31.77
2023-04-16T06:29:44.399Z,31.17
2023-04-16T06:30:26.635Z,35.17
2023-04-16T06:31:08.962Z,35.78
2023-04-16T06:31:51.395Z,29.88
2023-04-16T06:32:33.666Z,34.85
2023-04-16T06:33:16.392Z,34.47
2023-04-16T06:33:58.555Z,33.13
2023-04-16T06:34:40.746Z,36.22
2023-04-16T06:35:23.135Z,35.88
2023-04-16T06:36:05.415Z,37.80
2023-04-16T06:36:47.616Z,28.70
2023-04-16T06:37:29.808Z,30.05
2023-04-16T06:38:12.195Z,32.75
2023-04-16T06:38:54.412Z,32.45
2023-04-16T06:39:36.623Z,28.27
2023-04-16T06:40:18.819Z,31.83
2023-04-16T06:41:01.338Z,30.92
2023-04-16T06:41:43.503Z,32.38
2023-04-16T06:42:25.704Z,30.95
2023-04-16T06:43:08.268Z,29.98
2023-04-16T06:43:52.816Z,30.63
2023-04-16T06:44:38.061Z,30.13
2023-04-16T06:45:20.419Z,32.67
2023-04-16T06:46:02.598Z,30.65
2023-04-16T06:46:46.659Z,29.35
2023-04-16T06:47:28.924Z,27.95
2023-04-16T06:48:11.409Z,33.58
2023-04-16T06:48:53.573Z,32.67
2023-04-16T06:49:35.761Z,31.58
2023-04-16T06:50:17.968Z,29.98
2023-04-16T06:51:00.817Z,28.05
2023-04-16T06:51:43.371Z,28.67
2023-04-16T06:52:25.594Z,30.25
2023-04-16T06:53:07.818Z,31.35
2023-04-16T06:53:50.485Z,30.85
2023-04-16T06:54:32.772Z,26.55
2023-04-16T06:55:14.968Z,30.55
2023-04-16T06:55:57.242Z,27.85
2023-04-16T06:56:41.733Z,27.50
2023-04-16T06:57:23.966Z,27.75
2023-04-16T06:58:06.484Z,27.67
2023-04-16T06:58:48.711Z,29.92
2023-04-16T06:59:30.916Z,29.42
2023-04-16T07:00:13.496Z,28.17
2023-04-16T07:00:55.738Z,30.73
2023-04-16T07:01:38.022Z,29.00
2023-04-16T07:02:20.568Z,29.58
2023-04-16T07:03:03.493Z,27.75
2023-04-16T07:03:46.010Z,28.88
2023-04-16T07:04:28.647Z,31.00
2023-04-16T07:05:11.221Z,30.83
2023-04-16T07:05:53.362Z,28.42
2023-04-16T07:06:35.753Z,27.33
2023-04-16T07:07:18.014Z,24.23
2023-04-16T07:08:00.551Z,26.02
2023-04-16T07:08:42.751Z,26.80
2023-04-16T07:09:25.536Z,24.83
2023-04-16T07:10:08.263Z,27.45
2023-04-16T07:10:50.692Z,28.27
2023-04-16T07:11:32.853Z,28.70
2023-04-16T07:12:15.109Z,29.08
2023-04-16T07:12:57.391Z,25.73
2023-04-16T07:13:39.698Z,27.65
2023-04-16T07:14:22.308Z,27.60
2023-04-16T07:15:04.714Z,25.65
2023-04-16T07:15:47.218Z,25.33
2023-04-16T07:16:31.727Z,24.73
2023-04-16T07:17:13.935Z,26.88
2023-04-16T07:17:56.550Z,27.80
2023-04-16T07:18:38.885Z,25.75
2023-04-16T07:19:21.537Z,24.67
2023-04-16T07:20:03.718Z,25.25
2023-04-16T07:20:46.028Z,26.30
2023-04-16T07:21:28.461Z,27.05
2023-04-16T07:22:10.621Z,25.38
2023-04-16T07:22:52.803Z,23.85
2023-04-16T07:23:35.026Z,23.70
2023-04-16T07:24:17.811Z,26.45
2023-04-16T07:25:00.022Z,27.20
2023-04-16T07:25:42.490Z,24.85
2023-04-16T07:26:24.698Z,25.70
2023-04-16T07:27:07.172Z,27.73
2023-04-16T07:27:51.692Z,24.83
2023-04-16T07:28:33.995Z,23.17
2023-04-16T07:29:16.377Z,24.23
2023-04-16T07:29:58.724Z,24.65
2023-04-16T07:30:41.001Z,23.63
2023-04-16T07:31:23.248Z,25.05
2023-04-16T07:32:05.581Z,25.15
2023-04-16T07:32:47.876Z,25.30
2023-04-16T07:33:30.127Z,26.05
2023-04-16T07:34:12.753Z,24.95
2023-04-16T07:34:55.924Z,25.08
2023-04-16T07:35:38.068Z,22.45
2023-04-16T07:36:20.691Z,24.45
2023-04-16T07:37:02.849Z,22.42
2023-04-16T07:37:45.070Z,25.27
2023-04-16T07:38:27.417Z,24.98
2023-04-16T07:39:11.192Z,21.80
2023-04-16T07:39:56.238Z,21.20
2023-04-16T07:40:39.566Z,21.95
2023-04-16T07:41:21.867Z,22.80
2023-04-16T07:42:04.032Z,22.45
2023-04-16T07:42:46.262Z,23.05
2023-04-16T07:43:28.560Z,21.45
2023-04-16T07:44:10.816Z,21.58
2023-04-16T07:44:53.008Z,19.65
2023-04-16T07:45:37.753Z,18.02
2023-04-16T07:46:20.107Z,19.55
2023-04-16T07:47:05.265Z,20.63
2023-04-16T07:47:47.836Z,23.10
2023-04-16T07:48:30.133Z,22.75
2023-04-16T07:49:12.429Z,20.33
2023-04-16T07:49:54.594Z,21.40
2023-04-16T07:50:37.415Z,20.05
2023-04-16T07:51:21.652Z,20.85
2023-04-16T07:52:03.837Z,20.90
2023-04-16T07:52:46.502Z,23.92
2023-04-16T07:53:31.245Z,23.58
2023-04-16T07:54:16.326Z,23.98
2023-04-16T07:55:01.119Z,24.88
2023-04-16T07:55:43.384Z,21.10
2023-04-16T07:56:25.935Z,23.90
2023-04-16T07:57:08.096Z,28.20
2023-04-16T07:57:50.741Z,32.05
2023-04-16T07:58:32.944Z,31.83
2023-04-16T07:59:22.846Z,31.40
2023-04-16T08:00:05.760Z,32.10
2023-04-16T08:00:49.292Z,34.90
2023-04-16T08:01:36.132Z,32.15
2023-04-16T08:02:18.424Z,32.85
2023-04-16T08:03:01.254Z,35.78
2023-04-16T08:03:46.130Z,38.35
2023-04-16T08:04:31.379Z,39.88
2023-04-16T08:05:13.923Z,46.25
2023-04-16T08:05:56.294Z,50.47
2023-04-16T08:06:38.519Z,45.78
2023-04-16T08:07:20.848Z,42.17
2023-04-16T08:08:03.206Z,39.72
2023-04-16T08:08:46.135Z,42.90
2023-04-16T08:09:28.951Z,42.13
2023-04-16T08:10:11.230Z,42.63
2023-04-16T08:10:55.925Z,41.55
2023-04-16T08:11:38.204Z,41.80
2023-04-16T08:12:20.968Z,42.92
2023-04-16T08:13:03.186Z,42.90
2023-04-16T08:13:45.943Z,42.63
2023-04-16T08:14:28.134Z,40.80
2023-04-16T08:15:10.857Z,42.63
2023-04-16T08:15:53.123Z,45.05
2023-04-16T08:16:35.326Z,40.83
2023-04-16T08:17:17.687Z,43.08
2023-04-16T08:18:00.099Z,44.55
2023-04-16T08:18:42.381Z,44.45
2023-04-16T08:19:24.528Z,43.30
2023-04-16T08:20:07.046Z,42.47
2023-04-16T08:20:49.266Z,46.10
2023-04-16T08:21:31.681Z,43.53
2023-04-16T08:22:14.378Z,48.47
2023-04-16T08:22:56.757Z,46.35
2023-04-16T08:23:38.972Z,47.85
2023-04-16T08:24:21.168Z,47.63
2023-04-16T08:25:04.229Z,46.20
2023-04-16T08:25:46.411Z,50.65
2023-04-16T08:26:31.224Z,48.85
2023-04-16T08:27:19.398Z,52.83
2023-04-16T08:28:02.330Z,51.00
2023-04-16T08:28:44.536Z,45.88
2023-04-16T08:29:26.777Z,48.45
2023-04-16T08:30:09.076Z,50.60
2023-04-16T08:30:51.303Z,49.65
2023-04-16T08:31:36.701Z,47.28
2023-04-16T08:32:18.958Z,49.83
2023-04-16T08:33:01.485Z,49.50
2023-04-16T08:33:46.145Z,51.53
2023-04-16T08:34:28.386Z,48.33
2023-04-16T08:35:10.884Z,47.88
2023-04-16T08:35:53.121Z,44.30
2023-04-16T08:36:35.527Z,45.38
2023-04-16T08:37:17.829Z,45.72
2023-04-16T08:38:02.391Z,46.50
2023-04-16T08:38:44.887Z,45.30
2023-04-16T08:39:27.108Z,47.17
2023-04-16T08:40:11.845Z,48.38
2023-04-16T08:40:55.053Z,44.80
2023-04-16T08:41:41.007Z,44.92
2023-04-16T08:42:25.041Z,47.42
2023-04-16T08:43:11.215Z,44.53
2023-04-16T08:43:54.676Z,49.22
2023-04-16T08:44:39.656Z,44.65
2023-04-16T08:45:22.133Z,42.97
2023-04-16T08:46:06.025Z,42.88
2023-04-16T08:46:51.080Z,44.33
2023-04-16T08:47:35.153Z,46.05
2023-04-16T08:48:20.070Z,47.83
2023-04-16T08:49:03.594Z,44.70
2023-04-16T08:49:46.518Z,53.88
2023-04-16T08:50:29.134Z,51.10
2023-04-16T08:51:12.144Z,50.33
2023-04-16T08:51:55.677Z,50.28
2023-04-16T08:52:39.010Z,51.80
2023-04-16T08:53:23.642Z,47.85
2023-04-16T08:54:09.349Z,49.25
2023-04-16T08:54:59.908Z,48.40
2023-04-16T08:55:47.269Z,52.13
2023-04-16T08:56:30.653Z,52.58
2023-04-16T08:57:13.261Z,53.92
2023-04-16T08:57:58.367Z,55.08
2023-04-16T08:58:41.055Z,52.47
2023-04-16T08:59:23.367Z,54.95
2023-04-16T09:00:07.102Z,53.80
2023-04-16T09:00:50.106Z,54.45
2023-04-16T09:01:36.129Z,55.88
2023-04-16T09:02:18.672Z,59.17
2023-04-16T09:03:01.385Z,59.50
2023-04-16T09:03:44.488Z,61.58
2023-04-16T09:04:30.694Z,61.53
2023-04-16T09:05:21.378Z,51.72
2023-04-16T09:06:05.132Z,59.33
2023-04-16T09:06:48.238Z,62.35
2023-04-16T09:07:30.432Z,59.45
2023-04-16T09:08:13.668Z,59.92
2023-04-16T09:08:58.214Z,60.10
2023-04-16T09:09:40.676Z,59.33
2023-04-16T09:10:22.981Z,62.70
2023-04-16T09:11:05.533Z,55.58
2023-04-16T09:11:51.116Z,56.40